Time;durP1;ratioP1;P1;durP2;ratioP2;P2;SDS_P1;SDS_P2;PMS_P1;PMS_P2;Temp;Humidity;BMP_temperature;BMP_pressure;BME280_temperature;BME280_humidity;BME280_pressure;Samples;Min_cycle;Max_cycle;Signal;HPM_P1;HPM_P2
2021/12/06 00:02:12;;;;;;;49.50;24.48;;;2.90;99.90;;;;;;5059398;28;20080;-91
2021/12/06 00:04:39;;;;;;;54.88;24.55;;;2.90;99.90;;;;;;5076098;28;20049;-92
2021/12/06 00:07:16;;;;;;;57.50;24.38;;;2.90;99.90;;;;;;5076118;28;20127;-91
2021/12/06 00:09:41;;;;;;;51.15;23.88;;;2.90;99.90;;;;;;5042333;28;20056;-91
2021/12/06 00:12:09;;;;;;;53.33;24.30;;;2.80;99.90;;;;;;5059608;28;20123;-90
2021/12/06 00:14:38;;;;;;;53.63;24.13;;;2.80;99.90;;;;;;5042668;28;20041;-91
2021/12/06 00:17:10;;;;;;;52.25;24.95;;;2.80;99.90;;;;;;5042420;28;20063;-91
2021/12/06 00:19:37;;;;;;;57.35;24.02;;;2.80;99.90;;;;;;5075820;28;20493;-90
2021/12/06 00:22:05;;;;;;;57.75;24.08;;;2.80;99.90;;;;;;5042302;28;20402;-91
2021/12/06 00:24:31;;;;;;;56.15;23.73;;;2.80;99.90;;;;;;5058851;28;20048;-91
2021/12/06 00:26:57;;;;;;;52.33;23.50;;;2.70;99.90;;;;;;5075297;28;20063;-92
2021/12/06 00:29:23;;;;;;;49.35;22.92;;;2.70;99.90;;;;;;5042329;28;20088;-91
2021/12/06 00:31:50;;;;;;;51.42;23.85;;;2.70;99.90;;;;;;5042374;28;20040;-91
2021/12/06 00:34:18;;;;;;;53.40;23.83;;;2.70;99.90;;;;;;5058833;28;20044;-90
2021/12/06 00:36:53;;;;;;;53.30;23.40;;;2.70;99.90;;;;;;5058696;28;20076;-91
2021/12/06 00:39:21;;;;;;;54.65;23.92;;;2.70;99.90;;;;;;5042190;28;20052;-90
2021/12/06 00:41:47;;;;;;;53.05;24.17;;;2.70;99.90;;;;;;5075419;28;20138;-90
2021/12/06 00:44:13;;;;;;;50.92;22.88;;;2.60;99.90;;;;;;5058767;28;20052;-91
2021/12/06 00:46:39;;;;;;;50.97;23.40;;;2.80;99.90;;;;;;5041643;28;20131;-91
2021/12/06 00:49:10;;;;;;;52.25;24.05;;;2.60;99.90;;;;;;5058212;28;20075;-91
2021/12/06 00:51:36;;;;;;;54.42;23.30;;;2.60;99.90;;;;;;5074908;28;20047;-91
2021/12/06 00:54:01;;;;;;;48.42;22.52;;;2.80;99.90;;;;;;5075472;28;20049;-91
2021/12/06 00:56:27;;;;;;;55.13;23.95;;;2.60;99.90;;;;;;5058404;28;20498;-90
2021/12/06 00:58:53;;;;;;;54.95;23.38;;;2.60;99.90;;;;;;5041932;28;20052;-91
2021/12/06 01:01:19;;;;;;;53.05;23.60;;;2.60;99.90;;;;;;5075084;28;20521;-90
2021/12/06 01:03:45;;;;;;;52.70;22.75;;;2.60;99.90;;;;;;5041766;28;20375;-92
2021/12/06 01:06:12;;;;;;;57.38;24.83;;;2.60;99.90;;;;;;5058015;28;20047;-91
2021/12/06 01:08:39;;;;;;;61.17;25.08;;;2.60;99.90;;;;;;5041511;28;20083;-91
2021/12/06 01:11:07;;;;;;;58.85;23.40;;;2.60;99.90;;;;;;5058294;28;20059;-91
2021/12/06 01:13:32;;;;;;;55.55;23.92;;;2.60;99.90;;;;;;5041668;28;20056;-91
2021/12/06 01:15:58;;;;;;;58.42;23.52;;;2.70;99.90;;;;;;5041449;28;20104;-92
2021/12/06 01:18:25;;;;;;;56.15;23.83;;;2.70;99.90;;;;;;5074700;28;20047;-91
2021/12/06 01:21:02;;;;;;;58.70;25.30;;;2.60;99.90;;;;;;5074408;28;20040;-91
2021/12/06 01:23:41;;;;;;;61.78;25.13;;;2.60;99.90;;;;;;5058107;28;20138;-91
2021/12/06 01:29:01;;;;;;;65.07;27.63;;;2.60;99.90;;;;;;5057882;28;20060;-91
2021/12/06 01:31:42;;;;;;;63.75;26.08;;;2.50;99.90;;;;;;5074204;28;20127;-91
2021/12/06 01:39:09;;;;;;;59.25;26.08;;;2.50;99.90;;;;;;5041412;28;20044;-91
2021/12/06 01:39:38;;;;;;;63.53;26.52;;;2.50;99.90;;;;;;5057749;28;20052;-91
2021/12/06 01:42:06;;;;;;;66.70;27.73;;;2.50;99.90;;;;;;5057461;28;20044;-90
2021/12/06 01:44:33;;;;;;;65.32;26.70;;;2.50;99.90;;;;;;5057802;28;20052;-91
2021/12/06 01:47:09;;;;;;;72.88;28.63;;;2.40;99.90;;;;;;5057244;28;20409;-91
2021/12/06 01:49:38;;;;;;;64.22;26.05;;;2.50;99.90;;;;;;5040851;28;20044;-92
2021/12/06 01:52:18;;;;;;;70.45;26.80;;;2.50;99.90;;;;;;5057319;28;20044;-92
2021/12/06 01:54:44;;;;;;;65.43;26.05;;;2.50;99.90;;;;;;5040514;28;20044;-91
2021/12/06 01:57:11;;;;;;;76.10;27.70;;;2.50;99.90;;;;;;5057519;28;20048;-91
2021/12/06 01:59:37;;;;;;;68.82;27.88;;;2.50;99.90;;;;;;5057636;28;20064;-91
2021/12/06 02:02:03;;;;;;;71.90;28.92;;;2.50;99.90;;;;;;5040414;28;20048;-91
2021/12/06 02:04:30;;;;;;;73.63;28.05;;;2.50;99.90;;;;;;5057037;28;20045;-91
2021/12/06 02:06:57;;;;;;;68.45;26.75;;;2.50;99.90;;;;;;5040418;28;20048;-91
2021/12/06 02:09:26;;;;;;;78.07;27.27;;;2.50;99.90;;;;;;5056968;28;20071;-91
2021/12/06 02:11:52;;;;;;;77.18;28.50;;;2.50;99.90;;;;;;5057106;28;20079;-91
2021/12/06 02:14:30;;;;;;;73.55;27.58;;;2.50;99.90;;;;;;5057070;28;20510;-91
2021/12/06 02:17:15;;;;;;;69.57;26.88;;;2.50;99.90;;;;;;5038805;28;20056;-91
2021/12/06 02:19:46;;;;;;;61.65;24.38;;;2.40;99.90;;;;;;5056505;28;20052;-91
2021/12/06 02:22:15;;;;;;;;;;;2.50;99.90;;;;;;5073793;28;20119;-91
2021/12/06 02:24:42;;;;;;;58.22;22.95;;;2.50;99.90;;;;;;5056845;28;19920;-91
2021/12/06 02:27:10;;;;;;;63.53;23.80;;;2.50;99.90;;;;;;5055991;28;20131;-90
2021/12/06 02:29:37;;;;;;;53.10;23.23;;;2.50;99.90;;;;;;5039892;28;20048;-91
2021/12/06 02:32:09;;;;;;;59.28;24.10;;;2.50;99.90;;;;;;5056300;28;20048;-92
2021/12/06 02:34:36;;;;;;;49.63;22.85;;;2.50;99.90;;;;;;5056332;28;20052;-91
2021/12/06 02:37:02;;;;;;;46.55;20.73;;;2.50;99.90;;;;;;5056518;28;20041;-90
2021/12/06 02:39:30;;;;;;;51.17;21.55;;;2.50;99.90;;;;;;5039476;28;20398;-90
2021/12/06 02:41:57;;;;;;;48.58;22.08;;;2.50;99.90;;;;;;5039927;28;20187;-90
2021/12/06 02:44:23;;;;;;;50.00;22.17;;;2.50;99.90;;;;;;5056361;28;20052;-91
2021/12/06 02:46:49;;;;;;;50.47;22.45;;;2.70;99.90;;;;;;5039580;28;20044;-91
2021/12/06 02:49:16;;;;;;;48.17;21.58;;;2.60;99.90;;;;;;5056094;28;20505;-90
2021/12/06 02:51:42;;;;;;;51.75;22.45;;;2.60;99.90;;;;;;5072904;28;20486;-91
2021/12/06 02:54:09;;;;;;;50.92;23.15;;;2.90;99.90;;;;;;5056479;28;20131;-90
2021/12/06 02:59:25;;;;;;;55.67;22.65;;;2.50;99.90;;;;;;5056131;28;20409;-91
2021/12/06 03:01:58;;;;;;;59.22;23.25;;;2.60;99.90;;;;;;5055752;28;20051;-90
2021/12/06 03:04:23;;;;;;;54.90;23.13;;;2.50;99.90;;;;;;5072528;28;20052;-90
2021/12/06 03:06:54;;;;;;;57.47;23.35;;;2.60;99.90;;;;;;5039078;28;20051;-90
2021/12/06 03:09:23;;;;;;;59.43;23.80;;;2.60;99.90;;;;;;5072601;28;20048;-90
2021/12/06 03:11:54;;;;;;;60.38;22.92;;;2.80;99.90;;;;;;5039326;28;20291;-90
2021/12/06 03:14:27;;;;;;;62.00;22.77;;;2.60;99.90;;;;;;5056052;28;20044;-90
2021/12/06 03:16:54;;;;;;;60.70;23.65;;;2.60;99.90;;;;;;5038992;28;20045;-90
2021/12/06 03:19:23;;;;;;;62.45;23.67;;;2.60;99.90;;;;;;5055767;28;20044;-91
2021/12/06 03:21:49;;;;;;;61.15;23.90;;;2.60;99.90;;;;;;5072494;28;20080;-91
2021/12/06 03:24:15;;;;;;;72.03;25.08;;;2.60;99.90;;;;;;5055883;28;20057;-90
2021/12/06 03:26:42;;;;;;;75.63;25.92;;;2.60;99.90;;;;;;5072031;28;20098;-90
2021/12/06 03:29:09;;;;;;;69.45;24.95;;;2.60;99.90;;;;;;5055136;28;20052;-91
2021/12/06 03:31:34;;;;;;;73.35;24.77;;;2.60;99.90;;;;;;5055691;28;20049;-91
2021/12/06 03:34:00;;;;;;;83.45;24.77;;;2.60;99.90;;;;;;5039139;28;20037;-90
2021/12/06 03:36:28;;;;;;;80.70;25.70;;;2.60;99.90;;;;;;5055532;28;20557;-90
2021/12/06 03:38:56;;;;;;;82.22;26.08;;;2.60;99.90;;;;;;5055373;28;20044;-90
2021/12/06 03:41:23;;;;;;;79.68;25.38;;;2.60;99.90;;;;;;5038929;28;20044;-91
2021/12/06 03:43:50;;;;;;;83.70;25.92;;;2.60;99.90;;;;;;5038712;28;20052;-91
2021/12/06 03:46:19;;;;;;;91.88;27.20;;;2.60;99.90;;;;;;5055249;28;20047;-90
2021/12/06 03:48:45;;;;;;;82.25;26.15;;;2.60;99.90;;;;;;5055329;28;20048;-91
2021/12/06 03:51:11;;;;;;;91.45;28.02;;;2.60;99.90;;;;;;5038753;28;20490;-90
2021/12/06 03:53:37;;;;;;;92.30;26.75;;;2.60;99.90;;;;;;5038847;28;20048;-91
2021/12/06 03:56:04;;;;;;;92.28;27.70;;;2.60;99.90;;;;;;5038331;28;20099;-90
2021/12/06 03:58:30;;;;;;;82.05;26.92;;;2.60;99.90;;;;;;5055249;28;20059;-91
2021/12/06 04:00:56;;;;;;;77.60;26.45;;;2.60;99.90;;;;;;5055066;28;20052;-90
2021/12/06 04:03:25;;;;;;;89.80;28.10;;;2.60;99.90;;;;;;5055317;28;20463;-91
2021/12/06 04:05:52;;;;;;;99.57;27.92;;;2.60;99.90;;;;;;5055083;28;20043;-91
2021/12/06 04:08:17;;;;;;;95.22;27.67;;;2.60;99.90;;;;;;5038347;28;20413;-90
2021/12/06 04:10:43;;;;;;;103.78;27.30;;;2.60;99.90;;;;;;5055041;28;20048;-91
2021/12/06 04:13:10;;;;;;;103.97;29.35;;;2.60;99.90;;;;;;5055109;28;20565;-91
2021/12/06 04:15:38;;;;;;;104.03;28.02;;;2.60;99.90;;;;;;5071802;28;20122;-90
2021/12/06 04:18:04;;;;;;;95.72;28.10;;;2.60;99.90;;;;;;5055257;28;20441;-90
2021/12/06 04:20:30;;;;;;;105.35;28.70;;;2.90;99.90;;;;;;5071754;28;20048;-90
2021/12/06 04:22:57;;;;;;;112.18;29.02;;;2.60;99.90;;;;;;5038355;28;20593;-90
2021/12/06 04:25:23;;;;;;;107.82;30.08;;;2.60;99.90;;;;;;5071776;28;20058;-90
2021/12/06 04:27:59;;;;;;;110.18;28.50;;;2.60;99.90;;;;;;5054832;28;20095;-90
2021/12/06 04:30:26;;;;;;;108.38;28.25;;;2.60;99.90;;;;;;5038658;28;20051;-90
2021/12/06 04:32:54;;;;;;;103.63;28.60;;;2.60;99.90;;;;;;5054937;28;20041;-90
2021/12/06 04:35:20;;;;;;;117.03;29.05;;;2.80;99.90;;;;;;5038341;28;20402;-91
2021/12/06 04:37:46;;;;;;;115.57;29.85;;;2.60;99.90;;;;;;5038143;28;20044;-90
2021/12/06 04:40:13;;;;;;;113.03;27.85;;;2.90;99.90;;;;;;5073062;28;20565;-91
2021/12/06 04:42:39;;;;;;;108.35;28.02;;;2.70;99.90;;;;;;5041821;28;20099;-90
2021/12/06 04:45:06;;;;;;;137.32;29.75;;;2.70;99.90;;;;;;5075243;28;20048;-90
2021/12/06 04:47:32;;;;;;;119.63;30.23;;;2.70;99.90;;;;;;5058499;28;20585;-91
2021/12/06 04:50:01;;;;;;;141.02;30.95;;;2.70;99.90;;;;;;5058586;28;20123;-90
2021/12/06 04:52:27;;;;;;;136.68;30.15;;;2.70;99.90;;;;;;5058305;28;20041;-90
2021/12/06 04:54:56;;;;;;;108.80;29.10;;;2.70;99.90;;;;;;5058502;28;20410;-90
2021/12/06 04:57:34;;;;;;;115.53;30.23;;;2.70;99.90;;;;;;5058059;28;20052;-91
2021/12/06 05:00:11;;;;;;;115.03;29.48;;;2.70;99.90;;;;;;5075034;28;20049;-91
2021/12/06 05:02:38;;;;;;;121.45;29.17;;;2.70;99.90;;;;;;5075039;28;20406;-90
2021/12/06 05:05:08;;;;;;;116.95;30.33;;;2.80;99.90;;;;;;5074956;28;20041;-90
2021/12/06 05:07:39;;;;;;;122.38;29.60;;;2.70;99.90;;;;;;5074651;28;20127;-90
2021/12/06 05:10:08;;;;;;;107.95;28.08;;;2.80;99.90;;;;;;5057912;28;20057;-91
2021/12/06 05:12:35;;;;;;;111.28;28.77;;;2.70;99.90;;;;;;5041787;28;20045;-90
2021/12/06 05:15:02;;;;;;;116.15;28.95;;;2.70;99.90;;;;;;5075084;28;20055;-91
2021/12/06 05:17:31;;;;;;;98.35;29.45;;;2.70;99.90;;;;;;5041387;28;20048;-90
2021/12/06 05:19:58;;;;;;;114.90;30.52;;;2.70;99.90;;;;;;5057842;28;20040;-90
2021/12/06 05:22:24;;;;;;;124.38;30.13;;;2.70;99.90;;;;;;5057716;28;20553;-90
2021/12/06 05:24:51;;;;;;;121.35;30.83;;;2.70;99.90;;;;;;5057849;28;20052;-90
2021/12/06 05:27:23;;;;;;;128.20;30.52;;;2.70;99.90;;;;;;5040751;28;20057;-90
2021/12/06 05:29:51;;;;;;;115.93;30.92;;;2.70;99.90;;;;;;5057902;28;20044;-91
2021/12/06 05:32:18;;;;;;;124.30;31.10;;;2.70;99.90;;;;;;5057720;28;20478;-91
2021/12/06 05:34:46;;;;;;;119.55;30.92;;;2.90;99.90;;;;;;5040780;28;20433;-91
2021/12/06 05:37:14;;;;;;;116.15;31.15;;;2.70;99.90;;;;;;5040700;28;20041;-90
2021/12/06 05:39:40;;;;;;;133.63;31.98;;;2.70;99.90;;;;;;5057557;28;20173;-91
2021/12/06 05:42:11;;;;;;;131.95;31.92;;;2.70;99.90;;;;;;5041008;28;20036;-91
2021/12/06 05:44:38;;;;;;;118.15;31.48;;;2.70;99.90;;;;;;5057571;28;20041;-91
2021/12/06 05:47:04;;;;;;;137.00;31.40;;;2.90;99.90;;;;;;5040403;28;20044;-90
2021/12/06 05:49:30;;;;;;;132.60;31.63;;;2.70;99.90;;;;;;5057141;28;20047;-90
2021/12/06 05:51:57;;;;;;;139.55;33.10;;;2.70;99.90;;;;;;5055971;28;20438;-91
2021/12/06 05:54:24;;;;;;;136.02;32.03;;;2.70;99.90;;;;;;5057349;28;20175;-90
2021/12/06 05:56:49;;;;;;;132.13;32.47;;;2.70;99.90;;;;;;5040549;28;20052;-90
2021/12/06 05:59:16;;;;;;;125.93;31.30;;;2.70;99.90;;;;;;5040426;28;20056;-90
2021/12/06 06:01:42;;;;;;;131.02;32.40;;;2.70;99.90;;;;;;5040411;28;20099;-91
2021/12/06 06:04:08;;;;;;;123.82;31.20;;;2.70;99.90;;;;;;5040469;28;20045;-90
2021/12/06 06:06:36;;;;;;;124.28;34.45;;;2.70;99.90;;;;;;5056597;28;20051;-90
2021/12/06 06:09:04;;;;;;;159.50;34.20;;;2.70;99.90;;;;;;5056539;28;20508;-90
2021/12/06 06:11:29;;;;;;;116.03;32.28;;;2.70;99.90;;;;;;5040145;28;20048;-91
2021/12/06 06:13:55;;;;;;;114.47;30.63;;;2.70;99.90;;;;;;5056680;28;20497;-90
2021/12/06 06:16:25;;;;;;;117.85;32.83;;;2.70;99.90;;;;;;5056608;28;20123;-90
2021/12/06 06:18:51;;;;;;;119.80;31.85;;;2.70;99.90;;;;;;5040244;28;20048;-90
2021/12/06 06:21:20;;;;;;;127.82;33.63;;;2.70;99.90;;;;;;5039909;28;20091;-89
2021/12/06 06:23:46;;;;;;;127.70;34.33;;;2.70;99.90;;;;;;5056634;28;20052;-90
2021/12/06 06:26:11;;;;;;;127.15;34.35;;;2.70;99.90;;;;;;5056239;28;20041;-90
2021/12/06 06:28:37;;;;;;;124.15;35.05;;;2.70;99.90;;;;;;5056696;28;20052;-91
2021/12/06 06:31:03;;;;;;;117.47;32.92;;;2.70;99.90;;;;;;5039909;28;20053;-91
2021/12/06 06:33:29;;;;;;;113.05;32.78;;;2.70;99.90;;;;;;5056067;28;20498;-91
2021/12/06 06:35:55;;;;;;;124.07;36.47;;;2.90;99.90;;;;;;5056272;28;20396;-90
2021/12/06 06:38:22;;;;;;;111.72;34.88;;;2.70;99.90;;;;;;5055989;28;20053;-90
2021/12/06 06:40:49;;;;;;;119.65;36.05;;;2.60;99.90;;;;;;5073116;28;20388;-90
2021/12/06 06:43:15;;;;;;;114.65;31.88;;;2.60;99.90;;;;;;5073122;28;20040;-91
2021/12/06 06:45:41;;;;;;;128.13;34.92;;;2.60;99.90;;;;;;5072818;28;20059;-91
2021/12/06 06:48:07;;;;;;;113.60;34.97;;;2.60;99.90;;;;;;5055984;28;20128;-91
2021/12/06 06:50:32;;;;;;;117.10;33.90;;;2.60;99.90;;;;;;5039448;28;20098;-90
2021/12/06 06:52:58;;;;;;;114.00;33.08;;;2.70;99.90;;;;;;5055725;28;20048;-90
2021/12/06 06:55:24;;;;;;;110.10;32.67;;;2.80;99.90;;;;;;5056340;28;20092;-90
2021/12/06 06:57:51;;;;;;;106.90;32.60;;;2.60;99.90;;;;;;5055941;28;20044;-91
2021/12/06 07:00:34;;;;;;;97.90;30.95;;;2.60;99.90;;;;;;5055846;28;20048;-90
2021/12/06 07:03:01;;;;;;;105.25;31.20;;;2.50;99.90;;;;;;5072404;28;20110;-90
2021/12/06 07:05:28;;;;;;;112.78;32.78;;;2.50;99.90;;;;;;5055476;28;20124;-91
2021/12/06 07:07:55;;;;;;;112.93;32.78;;;2.50;99.90;;;;;;5038926;28;20591;-91
2021/12/06 07:10:23;;;;;;;119.80;32.67;;;2.50;99.90;;;;;;5039012;28;20135;-90
2021/12/06 07:12:53;;;;;;;106.68;32.08;;;2.50;99.90;;;;;;5038840;28;20091;-90
2021/12/06 07:15:28;;;;;;;103.30;31.98;;;2.50;99.90;;;;;;5038819;28;20044;-90
2021/12/06 07:17:54;;;;;;;103.00;31.02;;;2.50;99.90;;;;;;5055764;28;20036;-91
2021/12/06 07:20:21;;;;;;;92.45;29.30;;;2.60;99.90;;;;;;5055296;28;20198;-89
2021/12/06 07:22:52;;;;;;;96.75;29.95;;;2.40;99.90;;;;;;5072010;28;20131;-90
2021/12/06 07:25:19;;;;;;;95.22;30.30;;;2.60;99.90;;;;;;5071707;28;20121;-90
2021/12/06 07:27:45;;;;;;;94.90;28.27;;;2.40;99.90;;;;;;5054812;28;20517;-90
2021/12/06 07:30:12;;;;;;;93.35;30.20;;;2.40;99.90;;;;;;5055315;28;20071;-90
2021/12/06 07:32:39;;;;;;;101.20;29.65;;;2.60;99.90;;;;;;5071479;28;20055;-89
2021/12/06 07:35:05;;;;;;;92.82;30.17;;;2.40;99.90;;;;;;5071430;28;20243;-90
2021/12/06 07:37:31;;;;;;;96.03;29.50;;;2.30;99.90;;;;;;5054976;28;20620;-90
2021/12/06 07:39:57;;;;;;;107.45;30.40;;;2.40;99.90;;;;;;5071707;28;20139;-90
2021/12/06 07:42:23;;;;;;;94.85;29.23;;;2.40;99.90;;;;;;5038724;28;20521;-90
2021/12/06 07:44:48;;;;;;;95.95;29.02;;;2.40;99.90;;;;;;5054956;28;20198;-90
2021/12/06 07:47:15;;;;;;;98.15;30.48;;;2.40;99.90;;;;;;5054417;28;20056;-90
2021/12/06 07:49:43;;;;;;;94.55;28.92;;;2.40;99.90;;;;;;5055073;28;20186;-90
2021/12/06 07:52:10;;;;;;;88.22;29.02;;;2.40;99.90;;;;;;5071718;28;20048;-89
2021/12/06 07:54:36;;;;;;;86.88;28.55;;;2.40;99.90;;;;;;5038149;28;20067;-89
2021/12/06 07:57:03;;;;;;;89.75;29.80;;;2.40;99.90;;;;;;5038553;28;20505;-90
2021/12/06 07:59:28;;;;;;;91.45;28.50;;;2.40;99.90;;;;;;5055136;28;20048;-89
2021/12/06 08:01:54;;;;;;;82.35;27.88;;;2.40;99.90;;;;;;5038313;28;20110;-90
2021/12/06 08:04:20;;;;;;;85.63;28.92;;;2.40;99.90;;;;;;5054757;28;20040;-90
2021/12/06 08:06:45;;;;;;;91.32;29.23;;;2.40;99.90;;;;;;5038408;28;20044;-90
2021/12/06 08:09:12;;;;;;;71.65;26.48;;;2.40;99.90;;;;;;5056793;28;20040;-89
2021/12/06 08:11:37;;;;;;;88.30;29.30;;;2.40;99.90;;;;;;5083116;28;20097;-90
2021/12/06 08:14:04;;;;;;;89.18;29.30;;;2.40;99.90;;;;;;5091361;28;20063;-89
2021/12/06 08:16:33;;;;;;;95.15;30.48;;;2.40;99.90;;;;;;5061862;28;20048;-89
2021/12/06 08:18:59;;;;;;;96.93;31.55;;;2.50;99.90;;;;;;5096473;28;20051;-91
2021/12/06 08:21:26;;;;;;;97.75;33.08;;;2.50;99.90;;;;;;5062286;28;20051;-90
2021/12/06 08:23:53;;;;;;;110.40;32.95;;;2.40;99.90;;;;;;5078661;28;20052;-90
2021/12/06 08:26:21;;;;;;;105.80;34.40;;;2.50;99.90;;;;;;5062097;28;20036;-89
2021/12/06 08:28:48;;;;;;;107.93;33.80;;;2.50;99.90;;;;;;5095898;28;20044;-90
2021/12/06 08:31:14;;;;;;;103.60;33.97;;;2.50;99.90;;;;;;5095542;28;20112;-90
2021/12/06 08:33:41;;;;;;;106.55;36.78;;;2.50;99.90;;;;;;5095291;28;20055;-90
2021/12/06 08:36:09;;;;;;;110.72;35.15;;;2.60;99.90;;;;;;5061619;28;20519;-91
2021/12/06 08:38:36;;;;;;;118.07;38.50;;;2.50;99.90;;;;;;5078337;28;20056;-90
2021/12/06 08:41:06;;;;;;;111.25;36.72;;;2.50;99.90;;;;;;5061761;28;20082;-91
2021/12/06 08:43:32;;;;;;;95.68;31.65;;;2.50;99.90;;;;;;5062067;28;20048;-91
2021/12/06 08:46:01;;;;;;;87.10;32.22;;;2.40;99.90;;;;;;5078338;28;20135;-91
2021/12/06 08:48:31;;;;;;;92.25;30.52;;;2.40;99.90;;;;;;5061576;28;20432;-91
2021/12/06 08:50:59;;;;;;;75.70;28.65;;;2.30;99.90;;;;;;5095467;28;20048;-89
2021/12/06 08:53:25;;;;;;;78.45;27.15;;;2.30;99.90;;;;;;5078413;28;20128;-91
2021/12/06 08:55:51;;;;;;;87.88;28.33;;;2.30;99.90;;;;;;5078396;28;20130;-90
2021/12/06 08:58:18;;;;;;;81.22;28.40;;;2.30;99.90;;;;;;5078053;28;20056;-91
2021/12/06 09:00:44;;;;;;;74.75;27.73;;;2.30;99.90;;;;;;5061407;28;20116;-92
2021/12/06 09:03:11;;;;;;;80.20;27.45;;;2.40;99.90;;;;;;5077491;28;20036;-90
2021/12/06 09:05:41;;;;;;;70.07;26.60;;;2.50;99.90;;;;;;5061621;28;20075;-90
2021/12/06 09:08:09;;;;;;;67.13;26.88;;;2.50;99.90;;;;;;5061617;28;20147;-92
2021/12/06 09:10:36;;;;;;;63.22;25.58;;;2.50;99.90;;;;;;5062019;28;20050;-92
2021/12/06 09:13:04;;;;;;;68.65;26.27;;;2.50;99.90;;;;;;5061550;28;20040;-92
2021/12/06 09:15:31;;;;;;;67.88;25.92;;;2.50;99.90;;;;;;5078289;28;20055;-92
2021/12/06 09:17:58;;;;;;;67.75;25.25;;;2.50;99.90;;;;;;5078401;28;20047;-92
2021/12/06 09:20:28;;;;;;;55.25;21.85;;;2.60;99.90;;;;;;5078432;28;20043;-93
2021/12/06 09:22:54;;;;;;;56.38;22.98;;;2.70;99.90;;;;;;5078535;28;20410;-92
2021/12/06 09:25:20;;;;;;;55.35;21.33;;;2.70;99.90;;;;;;5078030;28;20044;-90
2021/12/06 09:27:47;;;;;;;49.95;21.73;;;2.70;99.90;;;;;;5077575;28;20056;-91
2021/12/06 09:30:17;;;;;;;46.22;19.60;;;2.70;99.90;;;;;;5078120;28;20048;-92
2021/12/06 09:32:43;;;;;;;45.72;19.85;;;2.70;99.90;;;;;;5077635;28;20044;-90
2021/12/06 09:35:12;;;;;;;45.75;19.88;;;2.60;99.90;;;;;;5077550;28;20044;-90
2021/12/06 09:37:39;;;;;;;42.28;18.67;;;2.70;99.90;;;;;;5056992;28;20052;-90
2021/12/06 09:40:07;;;;;;;46.72;20.35;;;2.70;99.90;;;;;;5056554;28;20131;-91
2021/12/06 09:42:36;;;;;;;46.33;18.95;;;2.70;99.90;;;;;;5060284;28;20103;-90
2021/12/06 09:45:05;;;;;;;40.80;19.23;;;2.80;99.90;;;;;;5077022;28;20044;-91
2021/12/06 09:47:32;;;;;;;44.92;19.65;;;2.80;99.90;;;;;;5060538;28;20052;-90
2021/12/06 09:49:58;;;;;;;42.08;18.83;;;2.80;99.90;;;;;;5077447;28;20097;-90
2021/12/06 09:52:24;;;;;;;41.95;19.05;;;2.80;99.90;;;;;;5060495;28;20051;-92
2021/12/06 09:54:50;;;;;;;43.92;19.52;;;2.80;99.90;;;;;;5060404;28;20048;-90
2021/12/06 09:57:16;;;;;;;40.58;17.73;;;2.80;99.90;;;;;;5077192;28;20048;-90
2021/12/06 09:59:43;;;;;;;41.50;18.00;;;2.80;99.90;;;;;;5059884;28;20252;-90
2021/12/06 10:02:14;;;;;;;37.15;17.77;;;2.80;99.90;;;;;;5077099;28;20047;-91
2021/12/06 10:04:45;;;;;;;41.38;18.13;;;2.80;99.90;;;;;;5077188;28;20044;-90
2021/12/06 10:07:12;;;;;;;36.10;18.13;;;2.80;99.90;;;;;;5060268;28;20040;-90
2021/12/06 10:09:39;;;;;;;44.97;19.05;;;2.80;99.90;;;;;;5076813;28;20044;-90
2021/12/06 10:12:07;;;;;;;45.78;19.20;;;2.90;99.90;;;;;;5076727;28;20093;-90
2021/12/06 10:14:33;;;;;;;42.15;18.83;;;2.90;99.90;;;;;;5059079;28;20068;-90
2021/12/06 10:16:58;;;;;;;45.22;18.50;;;2.80;99.90;;;;;;5060015;28;20050;-90
2021/12/06 10:19:25;;;;;;;40.60;17.83;;;2.80;99.90;;;;;;5076083;28;20040;-90
2021/12/06 10:21:52;;;;;;;49.38;20.52;;;2.80;99.90;;;;;;5060099;28;20074;-90
2021/12/06 10:24:22;;;;;;;56.88;21.35;;;3.20;99.90;;;;;;5060057;28;20054;-89
2021/12/06 10:26:48;;;;;;;54.88;21.90;;;2.80;99.90;;;;;;5076044;28;20089;-90
2021/12/06 10:29:22;;;;;;;51.70;21.50;;;2.80;99.90;;;;;;5059688;28;20087;-91
2021/12/06 10:31:54;;;;;;;52.33;20.88;;;2.90;99.90;;;;;;5093417;28;20051;-90
2021/12/06 10:34:27;;;;;;;52.25;21.73;;;2.90;99.90;;;;;;5059844;28;20052;-91
2021/12/06 10:36:54;;;;;;;63.08;21.88;;;2.80;99.90;;;;;;5059265;28;20062;-90
2021/12/06 10:39:22;;;;;;;58.20;22.40;;;2.80;99.90;;;;;;5059509;28;20052;-89
2021/12/06 10:41:50;;;;;;;57.13;21.80;;;2.90;99.90;;;;;;5075937;28;20396;-90
2021/12/06 10:44:16;;;;;;;61.63;21.77;;;2.80;99.90;;;;;;5059438;28;20161;-90
2021/12/06 10:46:48;;;;;;;53.15;22.75;;;2.90;99.90;;;;;;5075625;28;20545;-90
2021/12/06 10:49:34;;;;;;;60.17;21.90;;;3.10;99.90;;;;;;5076277;28;20083;-89
2021/12/06 10:52:00;;;;;;;58.40;22.15;;;2.90;99.90;;;;;;5059304;28;20042;-90
2021/12/06 10:54:35;;;;;;;59.65;22.35;;;3.00;99.90;;;;;;5074089;28;20490;-89
2021/12/06 10:57:03;;;;;;;59.33;22.20;;;3.00;99.90;;;;;;5059013;28;20055;-90
2021/12/06 10:59:33;;;;;;;52.45;20.95;;;3.30;99.90;;;;;;5058885;28;20143;-90
2021/12/06 11:02:06;;;;;;;52.42;20.92;;;3.00;99.90;;;;;;5059211;28;20035;-89
2021/12/06 11:04:32;;;;;;;53.25;21.65;;;3.00;99.90;;;;;;5075894;28;20086;-90
2021/12/06 11:07:06;;;;;;;54.80;20.42;;;3.00;99.90;;;;;;5058380;28;20490;-89
2021/12/06 11:09:39;;;;;;;57.00;21.10;;;3.00;99.90;;;;;;5075735;28;20048;-90
2021/12/06 11:12:07;;;;;;;54.55;20.15;;;3.30;99.90;;;;;;5058911;28;20051;-90
2021/12/06 11:14:36;;;;;;;59.22;21.33;;;3.00;99.90;;;;;;5058839;28;20050;-90
2021/12/06 11:17:10;;;;;;;56.20;20.83;;;2.90;99.90;;;;;;5075261;28;20098;-89
2021/12/06 11:19:37;;;;;;;50.47;20.77;;;2.90;99.90;;;;;;5075323;28;20041;-89
2021/12/06 11:22:12;;;;;;;53.00;21.13;;;2.90;99.90;;;;;;5058211;28;20055;-89
2021/12/06 11:24:40;;;;;;;54.55;21.77;;;3.00;99.90;;;;;;5075284;28;20048;-89
2021/12/06 11:27:13;;;;;;;45.13;20.30;;;3.00;99.90;;;;;;5074833;28;20107;-89
2021/12/06 11:29:45;;;;;;;54.63;20.58;;;3.10;99.90;;;;;;5057926;28;20139;-89
2021/12/06 11:32:10;;;;;;;48.70;18.63;;;3.10;99.90;;;;;;5074929;28;20048;-89
2021/12/06 11:34:58;;;;;;;48.00;19.73;;;3.10;99.90;;;;;;5075284;28;20055;-88
2021/12/06 11:37:45;;;;;;;44.78;18.25;;;3.10;99.90;;;;;;5075013;28;20064;-90
2021/12/06 11:40:14;;;;;;;42.63;17.40;;;3.20;99.90;;;;;;5058564;28;20044;-89
2021/12/06 11:43:03;;;;;;;45.13;18.67;;;3.20;99.90;;;;;;5074921;28;20048;-88
2021/12/06 11:45:46;;;;;;;41.67;18.10;;;3.20;99.90;;;;;;5058062;28;20067;-89
2021/12/06 11:48:14;;;;;;;40.17;18.00;;;3.20;99.90;;;;;;5075204;28;20174;-90
2021/12/06 11:51:04;;;;;;;53.75;21.35;;;3.20;99.90;;;;;;5077648;28;20050;-90
2021/12/06 11:53:52;;;;;;;46.08;19.85;;;3.20;99.90;;;;;;5061257;28;20040;-89
2021/12/06 11:56:21;;;;;;;50.42;21.10;;;3.40;99.90;;;;;;5078591;28;20043;-89
2021/12/06 11:58:52;;;;;;;58.80;22.33;;;3.20;99.90;;;;;;5062100;28;20101;-89
2021/12/06 12:01:35;;;;;;;54.67;22.58;;;3.20;99.90;;;;;;5078738;28;20039;-89
2021/12/06 12:04:04;;;;;;;62.60;23.05;;;3.20;99.90;;;;;;5079274;28;20523;-89
2021/12/06 12:06:32;;;;;;;59.38;23.60;;;3.40;99.90;;;;;;5078642;28;20596;-90
2021/12/06 12:09:12;;;;;;;63.55;23.95;;;3.20;99.90;;;;;;5062336;28;20450;-90
2021/12/06 12:12:05;;;;;;;64.50;23.85;;;3.10;99.90;;;;;;5078572;28;20048;-90
2021/12/06 12:14:42;;;;;;;66.28;23.52;;;3.10;99.90;;;;;;5079159;28;20134;-90
2021/12/06 12:17:30;;;;;;;64.70;24.35;;;3.10;99.90;;;;;;5061574;28;20444;-93
2021/12/06 12:19:58;;;;;;;78.97;26.77;;;3.10;99.90;;;;;;5078759;28;20036;-90
2021/12/06 12:22:25;;;;;;;75.85;27.63;;;3.20;99.90;;;;;;5078644;28;20051;-90
2021/12/06 12:24:56;;;;;;;68.68;25.95;;;3.10;99.90;;;;;;5062025;28;20048;-89
2021/12/06 12:27:33;;;;;;;;;;;3.10;99.90;;;;;;5078499;28;20108;-90
2021/12/06 12:30:02;;;;;;;70.72;26.08;;;3.20;99.90;;;;;;5061538;28;19920;-90
2021/12/06 12:32:30;;;;;;;70.93;28.50;;;3.20;99.90;;;;;;5078636;28;20048;-89
2021/12/06 12:34:59;;;;;;;73.38;29.08;;;3.20;99.90;;;;;;5078196;28;20070;-90
2021/12/06 12:37:25;;;;;;;71.22;28.52;;;3.20;99.90;;;;;;5078391;28;20052;-91
2021/12/06 12:40:03;;;;;;;72.70;29.75;;;3.30;99.90;;;;;;5078787;28;20044;-90
2021/12/06 12:42:28;;;;;;;75.97;30.25;;;3.30;99.90;;;;;;5078325;28;20048;-89
2021/12/06 12:44:56;;;;;;;177.18;38.78;;;3.20;99.90;;;;;;5078375;28;20048;-90
2021/12/06 12:47:30;;;;;;;73.75;28.40;;;3.30;99.90;;;;;;5061254;28;20044;-90
2021/12/06 12:50:09;;;;;;;80.53;30.98;;;3.50;99.90;;;;;;5078354;28;20047;-91
2021/12/06 12:52:51;;;;;;;74.28;30.30;;;3.30;99.90;;;;;;5078164;28;20039;-90